sensor_id;sensor_type;location;lat;lon;timestamp;P1;durP1;ratioP1;P2;durP2;ratioP2
7375;SDS011;3728;42.266;24.944;2024-03-23T00:55:36;9.77;;;6.67;;
7375;SDS011;3728;42.266;24.944;2024-03-23T00:58:02;10.83;;;7.23;;
7375;SDS011;3728;42.266;24.944;2024-03-23T01:00:28;12.90;;;6.17;;
7375;SDS011;3728;42.266;24.944;2024-03-23T01:02:55;8.97;;;6.83;;
7375;SDS011;3728;42.266;24.944;2024-03-23T01:05:21;9.40;;;6.77;;
7375;SDS011;3728;42.266;24.944;2024-03-23T01:07:47;12.20;;;6.53;;
7375;SDS011;3728;42.266;24.944;2024-03-23T01:10:13;11.73;;;6.40;;
7375;SDS011;3728;42.266;24.944;2024-03-23T01:12:39;10.37;;;7.47;;
7375;SDS011;3728;42.266;24.944;2024-03-23T01:15:05;8.53;;;6.50;;
7375;SDS011;3728;42.266;24.944;2024-03-23T01:17:32;10.23;;;7.40;;
7375;SDS011;3728;42.266;24.944;2024-03-23T01:19:58;9.33;;;6.33;;
7375;SDS011;3728;42.266;24.944;2024-03-23T01:22:24;10.00;;;6.47;;
7375;SDS011;3728;42.266;24.944;2024-03-23T01:24:51;14.63;;;7.33;;
7375;SDS011;3728;42.266;24.944;2024-03-23T01:27:17;14.77;;;7.47;;
7375;SDS011;3728;42.266;24.944;2024-03-23T01:29:43;10.67;;;6.83;;
7375;SDS011;3728;42.266;24.944;2024-03-23T01:32:10;16.67;;;7.40;;
7375;SDS011;3728;42.266;24.944;2024-03-23T01:34:36;8.30;;;6.43;;
7375;SDS011;3728;42.266;24.944;2024-03-23T01:37:02;8.27;;;6.70;;
7375;SDS011;3728;42.266;24.944;2024-03-23T01:39:28;10.63;;;6.77;;
7375;SDS011;3728;42.266;24.944;2024-03-23T01:41:54;11.47;;;6.63;;
7375;SDS011;3728;42.266;24.944;2024-03-23T01:44:20;11.03;;;6.80;;
7375;SDS011;3728;42.266;24.944;2024-03-23T01:46:47;10.77;;;7.10;;
7375;SDS011;3728;42.266;24.944;2024-03-23T01:49:13;9.37;;;6.77;;
7375;SDS011;3728;42.266;24.944;2024-03-23T01:51:40;8.37;;;6.13;;
7375;SDS011;3728;42.266;24.944;2024-03-23T01:54:07;11.17;;;6.53;;
7375;SDS011;3728;42.266;24.944;2024-03-23T01:56:34;9.40;;;6.80;;
7375;SDS011;3728;42.266;24.944;2024-03-23T01:59:01;10.83;;;7.13;;
7375;SDS011;3728;42.266;24.944;2024-03-23T02:01:28;8.13;;;6.23;;
7375;SDS011;3728;42.266;24.944;2024-03-23T02:03:56;8.43;;;5.43;;
7375;SDS011;3728;42.266;24.944;2024-03-23T02:06:22;4.63;;;4.23;;
7375;SDS011;3728;42.266;24.944;2024-03-23T02:08:50;7.57;;;5.80;;
7375;SDS011;3728;42.266;24.944;2024-03-23T02:11:16;7.77;;;5.37;;
7375;SDS011;3728;42.266;24.944;2024-03-23T02:13:43;5.27;;;4.77;;
7375;SDS011;3728;42.266;24.944;2024-03-23T02:16:09;6.57;;;5.33;;
7375;SDS011;3728;42.266;24.944;2024-03-23T02:18:35;6.33;;;5.40;;
7375;SDS011;3728;42.266;24.944;2024-03-23T02:21:02;7.77;;;6.30;;
7375;SDS011;3728;42.266;24.944;2024-03-23T02:23:29;11.27;;;6.40;;
7375;SDS011;3728;42.266;24.944;2024-03-23T02:25:55;11.70;;;8.83;;
7375;SDS011;3728;42.266;24.944;2024-03-23T02:28:21;15.77;;;9.57;;
7375;SDS011;3728;42.266;24.944;2024-03-23T02:30:51;12.67;;;8.63;;
7375;SDS011;3728;42.266;24.944;2024-03-23T02:33:17;10.07;;;7.23;;
7375;SDS011;3728;42.266;24.944;2024-03-23T02:35:44;9.67;;;7.27;;
7375;SDS011;3728;42.266;24.944;2024-03-23T02:38:11;9.80;;;6.57;;
7375;SDS011;3728;42.266;24.944;2024-03-23T02:40:37;8.33;;;6.00;;
7375;SDS011;3728;42.266;24.944;2024-03-23T02:43:03;7.03;;;5.67;;
7375;SDS011;3728;42.266;24.944;2024-03-23T02:45:30;7.20;;;5.47;;
7375;SDS011;3728;42.266;24.944;2024-03-23T02:47:56;6.47;;;5.50;;
7375;SDS011;3728;42.266;24.944;2024-03-23T02:50:22;8.87;;;6.83;;
7375;SDS011;3728;42.266;24.944;2024-03-23T02:52:49;9.40;;;7.37;;
7375;SDS011;3728;42.266;24.944;2024-03-23T02:55:15;12.47;;;7.70;;
7375;SDS011;3728;42.266;24.944;2024-03-23T02:57:41;11.77;;;6.73;;
7375;SDS011;3728;42.266;24.944;2024-03-23T03:00:07;11.30;;;7.03;;
7375;SDS011;3728;42.266;24.944;2024-03-23T03:02:35;12.00;;;7.43;;
7375;SDS011;3728;42.266;24.944;2024-03-23T03:05:03;9.87;;;7.20;;
7375;SDS011;3728;42.266;24.944;2024-03-23T03:07:31;17.87;;;10.07;;
7375;SDS011;3728;42.266;24.944;2024-03-23T03:09:58;17.57;;;9.07;;
7375;SDS011;3728;42.266;24.944;2024-03-23T03:12:24;16.80;;;8.17;;
7375;SDS011;3728;42.266;24.944;2024-03-23T03:14:50;11.70;;;7.40;;
7375;SDS011;3728;42.266;24.944;2024-03-23T03:17:16;10.47;;;7.30;;
7375;SDS011;3728;42.266;24.944;2024-03-23T03:19:42;13.73;;;7.23;;
7375;SDS011;3728;42.266;24.944;2024-03-23T03:22:08;16.37;;;8.50;;
7375;SDS011;3728;42.266;24.944;2024-03-23T03:24:34;23.83;;;10.20;;
7375;SDS011;3728;42.266;24.944;2024-03-23T03:27:00;17.43;;;8.77;;
7375;SDS011;3728;42.266;24.944;2024-03-23T03:29:29;12.80;;;7.87;;
7375;SDS011;3728;42.266;24.944;2024-03-23T03:32:01;9.33;;;6.63;;
7375;SDS011;3728;42.266;24.944;2024-03-23T03:34:28;11.53;;;7.40;;
7375;SDS011;3728;42.266;24.944;2024-03-23T03:36:55;16.20;;;7.63;;
7375;SDS011;3728;42.266;24.944;2024-03-23T03:39:23;14.93;;;6.77;;
7375;SDS011;3728;42.266;24.944;2024-03-23T03:41:50;13.60;;;6.80;;
7375;SDS011;3728;42.266;24.944;2024-03-23T03:44:17;10.17;;;6.87;;
7375;SDS011;3728;42.266;24.944;2024-03-23T03:46:43;11.43;;;7.37;;
7375;SDS011;3728;42.266;24.944;2024-03-23T03:49:09;11.27;;;6.97;;
7375;SDS011;3728;42.266;24.944;2024-03-23T03:51:36;10.27;;;7.73;;
7375;SDS011;3728;42.266;24.944;2024-03-23T03:54:02;11.13;;;6.73;;
7375;SDS011;3728;42.266;24.944;2024-03-23T03:56:30;14.10;;;6.73;;
7375;SDS011;3728;42.266;24.944;2024-03-23T03:58:57;10.43;;;6.80;;
7375;SDS011;3728;42.266;24.944;2024-03-23T04:01:23;11.60;;;7.40;;
7375;SDS011;3728;42.266;24.944;2024-03-23T04:03:49;11.50;;;6.97;;
7375;SDS011;3728;42.266;24.944;2024-03-23T04:06:18;12.70;;;7.20;;
7375;SDS011;3728;42.266;24.944;2024-03-23T04:08:45;15.20;;;7.20;;
7375;SDS011;3728;42.266;24.944;2024-03-23T04:11:11;8.57;;;6.77;;
7375;SDS011;3728;42.266;24.944;2024-03-23T04:13:37;9.53;;;6.43;;
7375;SDS011;3728;42.266;24.944;2024-03-23T04:16:04;15.67;;;6.80;;
7375;SDS011;3728;42.266;24.944;2024-03-23T04:18:30;10.97;;;6.97;;
7375;SDS011;3728;42.266;24.944;2024-03-23T04:20:57;9.10;;;6.50;;
7375;SDS011;3728;42.266;24.944;2024-03-23T04:23:23;9.67;;;6.87;;
7375;SDS011;3728;42.266;24.944;2024-03-23T04:25:49;12.23;;;6.70;;
7375;SDS011;3728;42.266;24.944;2024-03-23T04:28:16;10.90;;;6.63;;
7375;SDS011;3728;42.266;24.944;2024-03-23T04:30:42;11.70;;;6.30;;
7375;SDS011;3728;42.266;24.944;2024-03-23T04:33:09;12.80;;;6.90;;
7375;SDS011;3728;42.266;24.944;2024-03-23T04:35:35;14.67;;;8.90;;
7375;SDS011;3728;42.266;24.944;2024-03-23T04:38:01;17.80;;;11.10;;
7375;SDS011;3728;42.266;24.944;2024-03-23T04:40:27;22.73;;;13.70;;
7375;SDS011;3728;42.266;24.944;2024-03-23T04:42:53;25.77;;;15.67;;
7375;SDS011;3728;42.266;24.944;2024-03-23T04:45:19;26.60;;;16.03;;
7375;SDS011;3728;42.266;24.944;2024-03-23T04:47:48;27.03;;;15.60;;
7375;SDS011;3728;42.266;24.944;2024-03-23T04:50:14;23.23;;;13.83;;
7375;SDS011;3728;42.266;24.944;2024-03-23T04:52:41;33.83;;;16.33;;
7375;SDS011;3728;42.266;24.944;2024-03-23T04:55:08;24.43;;;15.27;;
7375;SDS011;3728;42.266;24.944;2024-03-23T04:57:34;38.63;;;16.17;;
7375;SDS011;3728;42.266;24.944;2024-03-23T05:00:01;35.97;;;15.80;;
7375;SDS011;3728;42.266;24.944;2024-03-23T05:02:29;26.83;;;13.67;;
7375;SDS011;3728;42.266;24.944;2024-03-23T05:04:57;19.50;;;11.20;;
7375;SDS011;3728;42.266;24.944;2024-03-23T05:07:23;19.07;;;10.63;;
7375;SDS011;3728;42.266;24.944;2024-03-23T05:09:49;30.80;;;10.50;;
7375;SDS011;3728;42.266;24.944;2024-03-23T05:12:15;39.90;;;19.57;;
7375;SDS011;3728;42.266;24.944;2024-03-23T05:14:43;44.07;;;17.63;;
7375;SDS011;3728;42.266;24.944;2024-03-23T05:17:09;28.00;;;14.60;;
7375;SDS011;3728;42.266;24.944;2024-03-23T05:19:35;50.00;;;25.13;;
7375;SDS011;3728;42.266;24.944;2024-03-23T05:22:01;36.10;;;22.80;;
7375;SDS011;3728;42.266;24.944;2024-03-23T05:24:27;28.20;;;15.93;;
7375;SDS011;3728;42.266;24.944;2024-03-23T05:26:54;25.87;;;15.30;;
7375;SDS011;3728;42.266;24.944;2024-03-23T05:29:20;26.53;;;13.10;;
7375;SDS011;3728;42.266;24.944;2024-03-23T05:31:49;18.27;;;11.23;;
7375;SDS011;3728;42.266;24.944;2024-03-23T05:34:17;20.20;;;12.53;;
7375;SDS011;3728;42.266;24.944;2024-03-23T05:36:43;23.93;;;15.23;;
7375;SDS011;3728;42.266;24.944;2024-03-23T05:39:10;21.57;;;13.27;;
7375;SDS011;3728;42.266;24.944;2024-03-23T05:41:37;21.43;;;13.37;;
7375;SDS011;3728;42.266;24.944;2024-03-23T05:44:03;20.90;;;10.67;;
7375;SDS011;3728;42.266;24.944;2024-03-23T05:46:30;25.47;;;12.63;;
7375;SDS011;3728;42.266;24.944;2024-03-23T05:48:57;30.10;;;18.47;;
7375;SDS011;3728;42.266;24.944;2024-03-23T05:51:28;36.87;;;18.47;;
7375;SDS011;3728;42.266;24.944;2024-03-23T05:53:54;38.87;;;22.07;;
7375;SDS011;3728;42.266;24.944;2024-03-23T05:56:23;26.63;;;19.37;;
7375;SDS011;3728;42.266;24.944;2024-03-23T05:58:52;73.10;;;51.33;;
7375;SDS011;3728;42.266;24.944;2024-03-23T06:01:21;82.53;;;69.10;;
7375;SDS011;3728;42.266;24.944;2024-03-23T06:03:47;105.17;;;73.70;;
7375;SDS011;3728;42.266;24.944;2024-03-23T06:06:14;45.67;;;38.17;;
7375;SDS011;3728;42.266;24.944;2024-03-23T06:08:40;29.73;;;21.80;;
7375;SDS011;3728;42.266;24.944;2024-03-23T06:11:07;20.13;;;15.23;;
7375;SDS011;3728;42.266;24.944;2024-03-23T06:13:34;22.77;;;12.20;;
7375;SDS011;3728;42.266;24.944;2024-03-23T06:16:03;21.57;;;13.00;;
7375;SDS011;3728;42.266;24.944;2024-03-23T06:18:30;16.50;;;10.77;;
7375;SDS011;3728;42.266;24.944;2024-03-23T06:20:57;23.53;;;15.83;;
7375;SDS011;3728;42.266;24.944;2024-03-23T06:23:23;12.23;;;7.53;;
7375;SDS011;3728;42.266;24.944;2024-03-23T06:25:49;20.03;;;12.33;;
7375;SDS011;3728;42.266;24.944;2024-03-23T06:28:15;15.50;;;9.57;;
7375;SDS011;3728;42.266;24.944;2024-03-23T06:30:41;13.40;;;8.60;;
7375;SDS011;3728;42.266;24.944;2024-03-23T06:33:07;15.33;;;8.80;;
7375;SDS011;3728;42.266;24.944;2024-03-23T06:35:34;14.00;;;8.83;;
7375;SDS011;3728;42.266;24.944;2024-03-23T06:38:01;11.87;;;8.40;;
7375;SDS011;3728;42.266;24.944;2024-03-23T06:40:27;16.23;;;9.23;;
7375;SDS011;3728;42.266;24.944;2024-03-23T06:42:54;11.63;;;8.53;;
7375;SDS011;3728;42.266;24.944;2024-03-23T06:45:20;13.77;;;8.53;;
7375;SDS011;3728;42.266;24.944;2024-03-23T06:47:49;15.67;;;9.50;;
7375;SDS011;3728;42.266;24.944;2024-03-23T06:50:16;17.23;;;9.73;;
7375;SDS011;3728;42.266;24.944;2024-03-23T06:52:43;19.10;;;8.70;;
7375;SDS011;3728;42.266;24.944;2024-03-23T06:55:12;10.43;;;7.37;;
7375;SDS011;3728;42.266;24.944;2024-03-23T06:57:42;9.73;;;7.23;;
7375;SDS011;3728;42.266;24.944;2024-03-23T07:00:12;9.63;;;7.43;;
7375;SDS011;3728;42.266;24.944;2024-03-23T07:02:43;12.63;;;7.03;;
7375;SDS011;3728;42.266;24.944;2024-03-23T07:05:13;10.83;;;7.07;;
7375;SDS011;3728;42.266;24.944;2024-03-23T07:07:39;8.73;;;6.70;;
7375;SDS011;3728;42.266;24.944;2024-03-23T07:10:08;9.87;;;6.27;;
7375;SDS011;3728;42.266;24.944;2024-03-23T07:12:35;13.37;;;8.83;;
7375;SDS011;3728;42.266;24.944;2024-03-23T07:15:02;11.50;;;7.27;;
7375;SDS011;3728;42.266;24.944;2024-03-23T07:17:28;10.60;;;7.63;;
7375;SDS011;3728;42.266;24.944;2024-03-23T07:19:55;11.03;;;8.00;;
7375;SDS011;3728;42.266;24.944;2024-03-23T07:22:21;12.47;;;7.27;;
7375;SDS011;3728;42.266;24.944;2024-03-23T07:24:47;11.83;;;7.20;;
7375;SDS011;3728;42.266;24.944;2024-03-23T07:27:13;9.67;;;7.03;;
7375;SDS011;3728;42.266;24.944;2024-03-23T07:29:39;12.93;;;7.73;;
7375;SDS011;3728;42.266;24.944;2024-03-23T07:32:06;10.03;;;7.83;;
7375;SDS011;3728;42.266;24.944;2024-03-23T07:34:32;10.50;;;6.70;;
7375;SDS011;3728;42.266;24.944;2024-03-23T07:36:59;11.27;;;6.83;;
7375;SDS011;3728;42.266;24.944;2024-03-23T07:39:25;10.30;;;7.00;;
7375;SDS011;3728;42.266;24.944;2024-03-23T07:41:54;14.83;;;7.50;;
7375;SDS011;3728;42.266;24.944;2024-03-23T07:44:21;10.37;;;7.60;;
7375;SDS011;3728;42.266;24.944;2024-03-23T07:46:47;16.67;;;7.23;;
7375;SDS011;3728;42.266;24.944;2024-03-23T07:49:14;11.17;;;7.03;;
7375;SDS011;3728;42.266;24.944;2024-03-23T07:51:42;14.77;;;7.07;;
7375;SDS011;3728;42.266;24.944;2024-03-23T07:54:10;18.10;;;10.10;;
7375;SDS011;3728;42.266;24.944;2024-03-23T07:56:36;23.17;;;8.53;;
7375;SDS011;3728;42.266;24.944;2024-03-23T07:59:02;14.63;;;8.57;;
7375;SDS011;3728;42.266;24.944;2024-03-23T08:01:29;15.57;;;8.97;;
7375;SDS011;3728;42.266;24.944;2024-03-23T08:03:55;9.53;;;6.37;;
7375;SDS011;3728;42.266;24.944;2024-03-23T08:06:21;12.27;;;6.60;;
7375;SDS011;3728;42.266;24.944;2024-03-23T08:08:50;8.90;;;7.03;;
7375;SDS011;3728;42.266;24.944;2024-03-23T08:11:27;11.00;;;6.90;;
7375;SDS011;3728;42.266;24.944;2024-03-23T08:13:55;10.77;;;6.40;;
7375;SDS011;3728;42.266;24.944;2024-03-23T08:16:22;12.10;;;6.80;;
7375;SDS011;3728;42.266;24.944;2024-03-23T08:18:52;10.27;;;6.60;;
7375;SDS011;3728;42.266;24.944;2024-03-23T08:21:20;17.90;;;7.50;;
7375;SDS011;3728;42.266;24.944;2024-03-23T08:23:47;15.17;;;10.87;;
7375;SDS011;3728;42.266;24.944;2024-03-23T08:26:14;10.90;;;6.43;;
7375;SDS011;3728;42.266;24.944;2024-03-23T08:28:41;7.63;;;6.70;;
7375;SDS011;3728;42.266;24.944;2024-03-23T08:31:08;9.67;;;6.67;;
7375;SDS011;3728;42.266;24.944;2024-03-23T08:33:36;9.93;;;6.37;;
7375;SDS011;3728;42.266;24.944;2024-03-23T08:36:08;8.87;;;6.83;;
7375;SDS011;3728;42.266;24.944;2024-03-23T08:38:37;9.67;;;6.97;;
7375;SDS011;3728;42.266;24.944;2024-03-23T08:41:05;11.73;;;5.90;;
7375;SDS011;3728;42.266;24.944;2024-03-23T08:43:36;8.43;;;5.63;;
7375;SDS011;3728;42.266;24.944;2024-03-23T08:46:11;13.57;;;6.70;;
7375;SDS011;3728;42.266;24.944;2024-03-23T08:48:39;17.07;;;11.97;;
7375;SDS011;3728;42.266;24.944;2024-03-23T08:51:09;8.20;;;6.13;;
7375;SDS011;3728;42.266;24.944;2024-03-23T08:53:38;13.87;;;6.00;;
7375;SDS011;3728;42.266;24.944;2024-03-23T08:56:05;6.30;;;5.70;;
7375;SDS011;3728;42.266;24.944;2024-03-23T08:58:33;8.03;;;6.00;;
7375;SDS011;3728;42.266;24.944;2024-03-23T09:01:04;7.37;;;5.33;;
7375;SDS011;3728;42.266;24.944;2024-03-23T09:03:32;9.60;;;5.27;;
7375;SDS011;3728;42.266;24.944;2024-03-23T09:05:59;10.83;;;5.50;;
7375;SDS011;3728;42.266;24.944;2024-03-23T09:08:26;12.90;;;5.00;;
7375;SDS011;3728;42.266;24.944;2024-03-23T09:10:52;6.00;;;4.10;;
7375;SDS011;3728;42.266;24.944;2024-03-23T09:13:19;5.00;;;4.50;;
7375;SDS011;3728;42.266;24.944;2024-03-23T09:15:49;5.90;;;4.27;;
7375;SDS011;3728;42.266;24.944;2024-03-23T09:18:17;7.07;;;4.90;;
7375;SDS011;3728;42.266;24.944;2024-03-23T09:20:43;10.53;;;7.00;;
7375;SDS011;3728;42.266;24.944;2024-03-23T09:23:10;5.97;;;4.87;;
7375;SDS011;3728;42.266;24.944;2024-03-23T09:25:37;6.67;;;4.90;;
7375;SDS011;3728;42.266;24.944;2024-03-23T09:28:05;6.27;;;4.60;;
7375;SDS011;3728;42.266;24.944;2024-03-23T09:30:34;13.07;;;5.00;;
7375;SDS011;3728;42.266;24.944;2024-03-23T09:33:02;9.30;;;4.50;;
7375;SDS011;3728;42.266;24.944;2024-03-23T09:35:28;6.30;;;4.20;;
7375;SDS011;3728;42.266;24.944;2024-03-23T09:37:54;5.40;;;4.13;;
7375;SDS011;3728;42.266;24.944;2024-03-23T09:40:21;6.73;;;3.73;;
7375;SDS011;3728;42.266;24.944;2024-03-23T09:42:51;3.73;;;3.43;;
7375;SDS011;3728;42.266;24.944;2024-03-23T09:45:17;3.80;;;3.40;;
7375;SDS011;3728;42.266;24.944;2024-03-23T09:47:48;7.90;;;3.90;;
7375;SDS011;3728;42.266;24.944;2024-03-23T09:50:16;5.70;;;3.27;;
7375;SDS011;3728;42.266;24.944;2024-03-23T09:52:42;5.00;;;3.10;;
7375;SDS011;3728;42.266;24.944;2024-03-23T09:55:08;2.87;;;2.60;;
7375;SDS011;3728;42.266;24.944;2024-03-23T09:57:35;11.40;;;6.93;;
7375;SDS011;3728;42.266;24.944;2024-03-23T10:00:02;4.97;;;3.03;;
7375;SDS011;3728;42.266;24.944;2024-03-23T10:02:32;3.57;;;2.40;;
7375;SDS011;3728;42.266;24.944;2024-03-23T10:05:02;5.13;;;2.87;;
7375;SDS011;3728;42.266;24.944;2024-03-23T10:07:29;7.87;;;3.20;;
7375;SDS011;3728;42.266;24.944;2024-03-23T10:09:56;2.77;;;2.57;;
7375;SDS011;3728;42.266;24.944;2024-03-23T10:12:23;7.00;;;2.40;;
7375;SDS011;3728;42.266;24.944;2024-03-23T10:14:50;4.83;;;2.50;;
7375;SDS011;3728;42.266;24.944;2024-03-23T10:17:17;3.00;;;2.80;;
7375;SDS011;3728;42.266;24.944;2024-03-23T10:19:45;4.77;;;2.90;;
7375;SDS011;3728;42.266;24.944;2024-03-23T10:22:17;4.80;;;2.60;;
7375;SDS011;3728;42.266;24.944;2024-03-23T10:24:46;6.20;;;4.33;;
7375;SDS011;3728;42.266;24.944;2024-03-23T10:27:15;5.27;;;4.10;;
7375;SDS011;3728;42.266;24.944;2024-03-23T10:29:44;5.87;;;4.40;;
7375;SDS011;3728;42.266;24.944;2024-03-23T10:32:13;17.03;;;11.53;;
7375;SDS011;3728;42.266;24.944;2024-03-23T10:34:43;4.97;;;3.83;;
7375;SDS011;3728;42.266;24.944;2024-03-23T10:37:11;9.27;;;3.87;;
7375;SDS011;3728;42.266;24.944;2024-03-23T10:39:39;4.60;;;4.10;;
7375;SDS011;3728;42.266;24.944;2024-03-23T10:42:09;7.40;;;4.23;;
7375;SDS011;3728;42.266;24.944;2024-03-23T10:44:36;5.03;;;4.00;;
7375;SDS011;3728;42.266;24.944;2024-03-23T10:47:04;4.83;;;3.60;;
7375;SDS011;3728;42.266;24.944;2024-03-23T10:49:34;11.30;;;5.17;;
7375;SDS011;3728;42.266;24.944;2024-03-23T10:52:03;9.83;;;5.00;;
7375;SDS011;3728;42.266;24.944;2024-03-23T10:54:31;14.03;;;4.70;;
7375;SDS011;3728;42.266;24.944;2024-03-23T10:57:03;5.20;;;4.30;;
7375;SDS011;3728;42.266;24.944;2024-03-23T10:59:40;3.63;;;3.33;;
7375;SDS011;3728;42.266;24.944;2024-03-23T11:02:07;3.80;;;3.40;;
7375;SDS011;3728;42.266;24.944;2024-03-23T11:04:45;4.07;;;3.63;;
7375;SDS011;3728;42.266;24.944;2024-03-23T11:07:33;9.33;;;3.30;;
7375;SDS011;3728;42.266;24.944;2024-03-23T11:10:06;5.47;;;3.67;;
7375;SDS011;3728;42.266;24.944;2024-03-23T11:12:58;4.40;;;4.00;;
7375;SDS011;3728;42.266;24.944;2024-03-23T11:15:48;3.97;;;3.57;;
7375;SDS011;3728;42.266;24.944;2024-03-23T11:18:20;5.40;;;3.63;;
7375;SDS011;3728;42.266;24.944;2024-03-23T11:20:46;3.20;;;2.90;;
7375;SDS011;3728;42.266;24.944;2024-03-23T11:23:29;10.57;;;3.87;;
7375;SDS011;3728;42.266;24.944;2024-03-23T11:25:55;3.80;;;3.43;;
7375;SDS011;3728;42.266;24.944;2024-03-23T11:28:21;6.07;;;3.50;;
7375;SDS011;3728;42.266;24.944;2024-03-23T11:30:52;3.87;;;3.47;;
7375;SDS011;3728;42.266;24.944;2024-03-23T11:33:18;10.60;;;3.57;;
7375;SDS011;3728;42.266;24.944;2024-03-23T11:35:45;4.77;;;3.30;;
7375;SDS011;3728;42.266;24.944;2024-03-23T11:38:15;4.67;;;3.80;;
7375;SDS011;3728;42.266;24.944;2024-03-23T11:40:47;3.87;;;3.50;;
7375;SDS011;3728;42.266;24.944;2024-03-23T11:43:19;14.63;;;3.63;;
7375;SDS011;3728;42.266;24.944;2024-03-23T11:45:48;3.10;;;2.80;;
7375;SDS011;3728;42.266;24.944;2024-03-23T11:48:28;7.57;;;3.43;;
7375;SDS011;3728;42.266;24.944;2024-03-23T11:50:56;6.10;;;3.13;;
7375;SDS011;3728;42.266;24.944;2024-03-23T11:53:24;4.37;;;3.30;;
7375;SDS011;3728;42.266;24.944;2024-03-23T11:55:56;23.90;;;5.07;;
7375;SDS011;3728;42.266;24.944;2024-03-23T11:58:27;6.20;;;3.30;;
7375;SDS011;3728;42.266;24.944;2024-03-23T12:00:57;5.07;;;3.17;;
7375;SDS011;3728;42.266;24.944;2024-03-23T12:03:25;17.90;;;4.60;;
7375;SDS011;3728;42.266;24.944;2024-03-23T12:05:54;8.60;;;3.63;;
7375;SDS011;3728;42.266;24.944;2024-03-23T12:11:11;3.40;;;2.87;;
7375;SDS011;3728;42.266;24.944;2024-03-23T12:13:40;3.83;;;3.20;;
7375;SDS011;3728;42.266;24.944;2024-03-23T12:16:19;2.90;;;2.70;;
7375;SDS011;3728;42.266;24.944;2024-03-23T12:18:46;4.87;;;3.27;;
7375;SDS011;3728;42.266;24.944;2024-03-23T12:21:15;7.40;;;3.10;;
7375;SDS011;3728;42.266;24.944;2024-03-23T12:23:43;5.33;;;3.40;;
7375;SDS011;3728;42.266;24.944;2024-03-23T12:26:10;6.37;;;3.77;;
7375;SDS011;3728;42.266;24.944;2024-03-23T12:28:38;3.43;;;2.93;;
7375;SDS011;3728;42.266;24.944;2024-03-23T12:31:05;6.87;;;2.80;;
7375;SDS011;3728;42.266;24.944;2024-03-23T12:33:31;5.37;;;2.80;;
7375;SDS011;3728;42.266;24.944;2024-03-23T12:35:58;5.17;;;3.50;;
7375;SDS011;3728;42.266;24.944;2024-03-23T12:38:25;6.25;;;3.55;;
7375;SDS011;3728;42.266;24.944;2024-03-23T12:40:51;3.80;;;3.45;;
7375;SDS011;3728;42.266;24.944;2024-03-23T12:43:18;6.10;;;3.45;;
7375;SDS011;3728;42.266;24.944;2024-03-23T12:45:48;4.10;;;2.90;;
7375;SDS011;3728;42.266;24.944;2024-03-23T12:48:15;3.53;;;3.05;;
7375;SDS011;3728;42.266;24.944;2024-03-23T12:50:42;5.00;;;2.85;;
7375;SDS011;3728;42.266;24.944;2024-03-23T12:53:08;6.80;;;4.43;;
7375;SDS011;3728;42.266;24.944;2024-03-23T12:55:35;4.40;;;3.05;;
7375;SDS011;3728;42.266;24.944;2024-03-23T12:58:02;3.45;;;3.00;;
7375;SDS011;3728;42.266;24.944;2024-03-23T13:00:28;7.85;;;5.10;;
7375;SDS011;3728;42.266;24.944;2024-03-23T13:02:56;4.55;;;2.63;;
7375;SDS011;3728;42.266;24.944;2024-03-23T13:05:22;3.95;;;2.95;;
7375;SDS011;3728;42.266;24.944;2024-03-23T13:07:48;5.55;;;2.53;;
7375;SDS011;3728;42.266;24.944;2024-03-23T13:10:14;4.25;;;2.80;;
7375;SDS011;3728;42.266;24.944;2024-03-23T13:12:41;2.97;;;2.45;;
7375;SDS011;3728;42.266;24.944;2024-03-23T13:15:08;4.03;;;2.75;;
7375;SDS011;3728;42.266;24.944;2024-03-23T13:17:35;3.08;;;2.38;;
7375;SDS011;3728;42.266;24.944;2024-03-23T13:20:02;8.10;;;3.20;;
7375;SDS011;3728;42.266;24.944;2024-03-23T13:22:29;3.58;;;2.20;;
7375;SDS011;3728;42.266;24.944;2024-03-23T13:24:55;4.90;;;2.58;;
7375;SDS011;3728;42.266;24.944;2024-03-23T13:27:21;2.70;;;2.40;;
7375;SDS011;3728;42.266;24.944;2024-03-23T13:29:48;3.00;;;2.60;;
7375;SDS011;3728;42.266;24.944;2024-03-23T13:32:16;5.55;;;2.60;;
7375;SDS011;3728;42.266;24.944;2024-03-23T13:34:42;4.68;;;2.65;;
7375;SDS011;3728;42.266;24.944;2024-03-23T13:37:08;3.78;;;2.58;;
7375;SDS011;3728;42.266;24.944;2024-03-23T13:39:35;2.80;;;2.58;;
7375;SDS011;3728;42.266;24.944;2024-03-23T13:42:01;2.55;;;1.95;;
7375;SDS011;3728;42.266;24.944;2024-03-23T13:44:29;3.65;;;2.60;;
7375;SDS011;3728;42.266;24.944;2024-03-23T13:46:56;3.58;;;2.20;;
7375;SDS011;3728;42.266;24.944;2024-03-23T13:51:58;13.30;;;2.55;;
7375;SDS011;3728;42.266;24.944;2024-03-23T13:54:24;4.32;;;2.50;;
7375;SDS011;3728;42.266;24.944;2024-03-23T13:56:54;16.02;;;3.65;;
7375;SDS011;3728;42.266;24.944;2024-03-23T13:59:22;2.40;;;2.20;;
7375;SDS011;3728;42.266;24.944;2024-03-23T14:01:51;1.88;;;1.77;;
7375;SDS011;3728;42.266;24.944;2024-03-23T14:04:17;2.38;;;2.17;;
7375;SDS011;3728;42.266;24.944;2024-03-23T14:06:45;3.13;;;2.80;;
7375;SDS011;3728;42.266;24.944;2024-03-23T14:09:12;2.50;;;2.08;;
7375;SDS011;3728;42.266;24.944;2024-03-23T14:11:40;4.90;;;2.80;;
7375;SDS011;3728;42.266;24.944;2024-03-23T14:14:09;2.42;;;1.98;;
7375;SDS011;3728;42.266;24.944;2024-03-23T14:16:35;3.40;;;1.90;;
7375;SDS011;3728;42.266;24.944;2024-03-23T14:19:02;2.72;;;2.30;;
7375;SDS011;3728;42.266;24.944;2024-03-23T14:21:30;2.47;;;2.25;;
7375;SDS011;3728;42.266;24.944;2024-03-23T14:23:56;2.15;;;1.83;;
7375;SDS011;3728;42.266;24.944;2024-03-23T14:26:22;1.90;;;1.80;;
7375;SDS011;3728;42.266;24.944;2024-03-23T14:28:49;5.07;;;1.80;;
7375;SDS011;3728;42.266;24.944;2024-03-23T14:31:16;2.53;;;1.67;;
7375;SDS011;3728;42.266;24.944;2024-03-23T14:33:42;2.90;;;1.52;;
7375;SDS011;3728;42.266;24.944;2024-03-23T14:36:12;6.35;;;1.90;;
7375;SDS011;3728;42.266;24.944;2024-03-23T14:38:39;2.13;;;1.92;;
7375;SDS011;3728;42.266;24.944;2024-03-23T14:41:06;2.00;;;1.90;;
7375;SDS011;3728;42.266;24.944;2024-03-23T14:43:32;3.13;;;1.90;;
7375;SDS011;3728;42.266;24.944;2024-03-23T14:46:08;3.45;;;2.13;;
7375;SDS011;3728;42.266;24.944;2024-03-23T14:48:38;2.22;;;1.80;;
7375;SDS011;3728;42.266;24.944;2024-03-23T14:51:06;2.70;;;1.98;;
7375;SDS011;3728;42.266;24.944;2024-03-23T14:53:34;2.35;;;2.15;;
7375;SDS011;3728;42.266;24.944;2024-03-23T14:56:03;3.30;;;2.17;;
7375;SDS011;3728;42.266;24.944;2024-03-23T14:58:30;5.95;;;2.00;;
7375;SDS011;3728;42.266;24.944;2024-03-23T15:01:03;2.38;;;1.95;;
7375;SDS011;3728;42.266;24.944;2024-03-23T15:03:34;2.40;;;2.05;;
7375;SDS011;3728;42.266;24.944;2024-03-23T15:06:01;2.38;;;2.17;;
7375;SDS011;3728;42.266;24.944;2024-03-23T15:08:28;2.10;;;2.00;;
7375;SDS011;3728;42.266;24.944;2024-03-23T15:10:58;2.40;;;1.80;;
7375;SDS011;3728;42.266;24.944;2024-03-23T15:13:31;2.30;;;2.10;;
7375;SDS011;3728;42.266;24.944;2024-03-23T15:16:01;4.07;;;1.80;;
7375;SDS011;3728;42.266;24.944;2024-03-23T15:18:32;3.97;;;2.92;;
7375;SDS011;3728;42.266;24.944;2024-03-23T15:21:02;5.38;;;2.17;;
7375;SDS011;3728;42.266;24.944;2024-03-23T15:23:34;2.42;;;1.88;;
7375;SDS011;3728;42.266;24.944;2024-03-23T15:26:02;2.63;;;2.15;;
7375;SDS011;3728;42.266;24.944;2024-03-23T15:28:29;2.15;;;1.95;;
7375;SDS011;3728;42.266;24.944;2024-03-23T15:31:14;2.65;;;2.00;;
7375;SDS011;3728;42.266;24.944;2024-03-23T15:33:40;2.35;;;1.98;;
7375;SDS011;3728;42.266;24.944;2024-03-23T15:36:06;1.80;;;1.70;;
7375;SDS011;3728;42.266;24.944;2024-03-23T15:38:33;3.78;;;2.13;;
7375;SDS011;3728;42.266;24.944;2024-03-23T15:40:59;1.75;;;1.65;;
7375;SDS011;3728;42.266;24.944;2024-03-23T15:43:25;2.58;;;1.50;;
7375;SDS011;3728;42.266;24.944;2024-03-23T15:46:00;13.02;;;4.32;;
7375;SDS011;3728;42.266;24.944;2024-03-23T15:48:29;4.25;;;2.28;;
7375;SDS011;3728;42.266;24.944;2024-03-23T15:50:58;2.55;;;1.63;;
7375;SDS011;3728;42.266;24.944;2024-03-23T15:53:29;2.38;;;1.92;;
7375;SDS011;3728;42.266;24.944;2024-03-23T15:56:00;3.03;;;1.80;;